Time;durP1;ratioP1;P1;durP2;ratioP2;P2;SDS_P1;SDS_P2;PMS_P1;PMS_P2;Temp;Humidity;BMP_temperature;BMP_pressure;BME280_temperature;BME280_humidity;BME280_pressure;Samples;Min_cycle;Max_cycle;Signal;HPM_P1;HPM_P2
2022/04/07 00:00:45;;;;;;;14.00;1.80;;;19.20;99.90;;;;;;5075410;28;20183;-69
2022/04/07 00:03:13;;;;;;;10.30;1.77;;;19.30;99.90;;;;;;5075186;28;20164;-69
2022/04/07 00:05:41;;;;;;;9.67;1.40;;;19.20;99.90;;;;;;5075314;28;20212;-69
2022/04/07 00:08:08;;;;;;;9.40;1.60;;;19.40;99.90;;;;;;5075381;28;20172;-69
2022/04/07 00:10:36;;;;;;;9.97;1.50;;;19.30;99.90;;;;;;5075211;28;20183;-69
2022/04/07 00:13:05;;;;;;;6.17;1.43;;;19.30;99.90;;;;;;5075261;28;20197;-69
2022/04/07 00:15:32;;;;;;;5.93;1.17;;;19.30;99.90;;;;;;5075130;28;20228;-69
2022/04/07 00:18:00;;;;;;;7.87;1.30;;;19.30;99.90;;;;;;5074296;28;20198;-69
2022/04/07 00:20:29;;;;;;;5.57;1.00;;;19.10;99.90;;;;;;5074689;28;20721;-69
2022/04/07 00:23:00;;;;;;;7.00;1.27;;;18.90;99.90;;;;;;5073204;28;20207;-69
2022/04/07 00:25:28;;;;;;;6.90;1.07;;;18.80;99.90;;;;;;5072197;28;20352;-69
2022/04/07 00:27:56;;;;;;;6.17;1.10;;;18.60;99.90;;;;;;5072959;28;20201;-69
2022/04/07 00:30:24;;;;;;;10.37;1.70;;;18.40;99.90;;;;;;5073675;28;20633;-68
2022/04/07 00:32:51;;;;;;;4.60;1.40;;;18.40;99.90;;;;;;5073214;28;20188;-66
2022/04/07 00:35:19;;;;;;;4.83;1.33;;;18.30;99.90;;;;;;5073551;28;20639;-67
2022/04/07 00:37:47;;;;;;;8.97;1.30;;;18.20;99.90;;;;;;5073463;28;20195;-67
2022/04/07 00:40:14;;;;;;;6.63;1.67;;;18.20;99.90;;;;;;5070460;28;20275;-67
2022/04/07 00:42:50;;;;;;;6.83;1.60;;;18.20;99.90;;;;;;5073347;28;20172;-66
2022/04/07 00:45:20;;;;;;;6.97;1.37;;;18.30;99.90;;;;;;5073422;28;20275;-68
2022/04/07 00:47:49;;;;;;;10.63;1.50;;;18.30;99.90;;;;;;5073161;28;20186;-68
2022/04/07 00:50:19;;;;;;;8.10;1.40;;;18.30;99.90;;;;;;5073347;28;20188;-68
2022/04/07 00:52:52;;;;;;;8.57;1.57;;;18.30;99.90;;;;;;5073147;28;20629;-68
2022/04/07 00:55:20;;;;;;;8.83;1.70;;;18.30;99.90;;;;;;5073130;28;20649;-68
2022/04/07 00:57:49;;;;;;;5.20;1.40;;;18.20;99.90;;;;;;5072965;28;20233;-68
2022/04/07 01:00:17;;;;;;;7.57;1.40;;;17.90;99.90;;;;;;5071648;28;20554;-66
2022/04/07 01:02:44;;;;;;;8.70;1.63;;;17.60;99.90;;;;;;5073043;28;20179;-68
2022/04/07 01:05:12;;;;;;;8.27;1.70;;;17.40;99.90;;;;;;5071622;28;20230;-68
2022/04/07 01:07:42;;;;;;;7.73;2.10;;;17.40;99.90;;;;;;5072970;28;20180;-67
2022/04/07 01:10:10;;;;;;;8.90;2.07;;;17.40;99.90;;;;;;5073033;28;20313;-68
2022/04/07 01:12:38;;;;;;;11.17;1.63;;;17.40;99.90;;;;;;5072907;28;20198;-69
2022/04/07 01:15:07;;;;;;;11.33;2.13;;;17.50;99.90;;;;;;5073445;28;20227;-69
2022/04/07 01:17:35;;;;;;;8.87;2.00;;;17.50;99.90;;;;;;5078515;28;20509;-68
2022/04/07 01:20:06;;;;;;;13.53;2.17;;;17.60;99.90;;;;;;5059888;28;20273;-68
2022/04/07 01:22:39;;;;;;;12.93;2.00;;;17.50;99.90;;;;;;5072498;28;20641;-69
2022/04/07 01:25:07;;;;;;;12.07;2.13;;;17.50;99.90;;;;;;5072628;28;20577;-69
2022/04/07 01:27:35;;;;;;;9.97;2.00;;;17.50;99.90;;;;;;5070476;28;20229;-68
2022/04/07 01:30:10;;;;;;;13.33;2.43;;;17.50;99.90;;;;;;5070771;28;20729;-68
2022/04/07 01:32:56;;;;;;;15.43;2.80;;;17.60;99.90;;;;;;5072560;28;20179;-69
2022/04/07 01:35:25;;;;;;;8.63;2.43;;;17.50;99.90;;;;;;5072179;28;20270;-69
2022/04/07 01:37:54;;;;;;;12.13;2.17;;;17.60;99.90;;;;;;5059332;28;20208;-69
2022/04/07 01:40:27;;;;;;;16.47;2.90;;;17.60;99.90;;;;;;5058670;28;20188;-68
2022/04/07 01:42:55;;;;;;;5.67;2.27;;;17.70;99.90;;;;;;5071744;28;20182;-68
2022/04/07 01:45:23;;;;;;;16.77;2.93;;;17.80;99.90;;;;;;5072010;28;20218;-69
2022/04/07 01:47:52;;;;;;;13.07;2.27;;;17.80;99.90;;;;;;5060123;28;20263;-69
2022/04/07 01:50:23;;;;;;;14.97;3.33;;;17.70;99.90;;;;;;5070802;28;20248;-69
2022/04/07 01:52:52;;;;;;;12.67;2.70;;;17.70;99.90;;;;;;5059205;28;20188;-69
2022/04/07 01:55:20;;;;;;;18.97;2.80;;;17.60;99.90;;;;;;5071120;28;20664;-69
2022/04/07 01:57:48;;;;;;;15.97;2.30;;;17.60;99.90;;;;;;5065648;28;20211;-69
2022/04/07 02:00:16;;;;;;;19.70;2.77;;;17.50;99.90;;;;;;5063140;28;20661;-68
2022/04/07 02:02:47;;;;;;;18.10;3.37;;;17.40;99.90;;;;;;5063834;28;20828;-67
2022/04/07 02:05:15;;;;;;;21.17;3.90;;;17.60;99.90;;;;;;5062681;28;20605;-69
2022/04/07 02:07:44;;;;;;;15.70;2.67;;;17.60;99.90;;;;;;5067053;28;20632;-68
2022/04/07 02:10:15;;;;;;;20.87;2.77;;;17.70;99.90;;;;;;5067390;28;20185;-68
2022/04/07 02:12:44;;;;;;;17.90;3.10;;;17.70;99.90;;;;;;5072035;28;20168;-68
2022/04/07 02:15:12;;;;;;;17.07;2.70;;;17.80;99.90;;;;;;5071724;28;20223;-67
2022/04/07 02:17:40;;;;;;;13.60;2.37;;;17.80;99.90;;;;;;5065339;28;20182;-67
2022/04/07 02:20:10;;;;;;;12.40;1.93;;;17.80;99.90;;;;;;5061522;28;20195;-68
2022/04/07 02:22:40;;;;;;;13.33;3.03;;;17.80;99.90;;;;;;5070097;28;20272;-69
2022/04/07 02:25:08;;;;;;;17.83;2.50;;;17.60;99.90;;;;;;5070506;28;20207;-69
2022/04/07 02:27:37;;;;;;;12.83;2.50;;;17.60;99.90;;;;;;5051650;28;20176;-69
2022/04/07 02:30:08;;;;;;;15.50;2.57;;;17.60;99.90;;;;;;5059865;28;20726;-69
2022/04/07 02:32:36;;;;;;;12.73;2.60;;;17.50;99.90;;;;;;5067242;28;20705;-69
2022/04/07 02:35:05;;;;;;;13.43;2.87;;;17.50;99.90;;;;;;5051632;28;20180;-68
2022/04/07 02:37:33;;;;;;;21.77;3.40;;;17.40;99.90;;;;;;5051602;28;20192;-68
2022/04/07 02:40:01;;;;;;;10.33;2.03;;;17.40;99.90;;;;;;5059421;28;20196;-67
2022/04/07 02:42:28;;;;;;;14.97;2.17;;;17.40;99.90;;;;;;5071650;28;20174;-68
2022/04/07 02:44:56;;;;;;;15.23;2.63;;;17.50;99.90;;;;;;5060002;28;20290;-67
2022/04/07 02:47:34;;;;;;;12.53;2.50;;;17.50;99.90;;;;;;5051636;28;20185;-67
2022/04/07 02:50:02;;;;;;;25.83;3.27;;;17.60;99.90;;;;;;5053004;28;20900;-68
2022/04/07 02:52:29;;;;;;;15.27;2.80;;;17.60;99.90;;;;;;5051419;28;20180;-68
2022/04/07 02:54:57;;;;;;;13.00;2.63;;;17.70;99.90;;;;;;5055055;28;20268;-68
2022/04/07 02:57:30;;;;;;;15.43;3.00;;;17.70;99.90;;;;;;5070916;28;20175;-67
2022/04/07 02:59:59;;;;;;;12.63;2.97;;;17.70;99.90;;;;;;5070741;28;20184;-68
2022/04/07 03:02:27;;;;;;;9.83;2.53;;;17.70;99.90;;;;;;5074661;28;20276;-69
2022/04/07 03:04:55;;;;;;;14.80;2.43;;;17.80;99.90;;;;;;5072911;28;20245;-70
2022/04/07 03:07:23;;;;;;;17.67;3.17;;;17.90;99.90;;;;;;5068781;28;20198;-68
2022/04/07 03:09:51;;;;;;;13.67;2.77;;;17.90;99.90;;;;;;5075979;28;20176;-68
2022/04/07 03:12:19;;;;;;;17.97;3.53;;;18.00;99.90;;;;;;5075954;28;20180;-69
2022/04/07 03:14:47;;;;;;;17.47;2.17;;;18.00;99.90;;;;;;5075953;28;20310;-69
2022/04/07 03:17:14;;;;;;;13.70;2.20;;;18.10;99.90;;;;;;5075937;28;20614;-69
2022/04/07 03:19:43;;;;;;;9.97;2.63;;;18.10;99.90;;;;;;5076098;28;20196;-69
2022/04/07 03:22:12;;;;;;;10.90;2.37;;;18.20;99.90;;;;;;5076149;28;20180;-70
2022/04/07 03:24:40;;;;;;;13.90;2.40;;;18.10;99.90;;;;;;5076367;28;22038;-69
2022/04/07 03:27:08;;;;;;;13.97;2.50;;;18.10;99.90;;;;;;5075753;28;20266;-69
2022/04/07 03:29:36;;;;;;;7.10;1.87;;;18.20;99.90;;;;;;5075419;28;20609;-69
2022/04/07 03:32:05;;;;;;;12.23;2.20;;;18.20;99.90;;;;;;5075292;28;20183;-69
2022/04/07 03:34:33;;;;;;;12.20;2.80;;;18.10;99.90;;;;;;5072904;28;20180;-69
2022/04/07 03:37:02;;;;;;;11.93;2.30;;;18.10;99.90;;;;;;5075215;28;20236;-69
2022/04/07 03:39:30;;;;;;;11.20;2.20;;;18.10;99.90;;;;;;5075769;28;20180;-69
2022/04/07 03:41:58;;;;;;;11.60;2.53;;;18.20;99.90;;;;;;5074701;28;20188;-69
2022/04/07 03:44:26;;;;;;;7.37;2.40;;;18.20;99.90;;;;;;5075707;28;20168;-69
2022/04/07 03:46:54;;;;;;;9.27;2.40;;;18.20;99.90;;;;;;5075922;28;20180;-69
2022/04/07 03:49:21;;;;;;;12.17;2.73;;;18.10;99.90;;;;;;5075811;28;20178;-69
2022/04/07 03:51:49;;;;;;;17.23;2.40;;;18.10;99.90;;;;;;5075572;28;20180;-69
2022/04/07 03:54:17;;;;;;;13.97;2.10;;;18.10;99.90;;;;;;5075498;28;20653;-69
2022/04/07 03:56:48;;;;;;;12.27;2.10;;;18.10;99.90;;;;;;5076039;28;20191;-69
2022/04/07 03:59:15;;;;;;;10.70;2.43;;;18.10;99.90;;;;;;5075357;28;20168;-69
2022/04/07 04:01:44;;;;;;;9.87;2.40;;;18.20;99.90;;;;;;5075532;28;20206;-69
2022/04/07 04:04:12;;;;;;;14.93;2.80;;;18.30;99.90;;;;;;5075661;28;20211;-69
2022/04/07 04:06:40;;;;;;;14.43;2.17;;;18.20;99.90;;;;;;5073450;28;20214;-68
2022/04/07 04:09:10;;;;;;;7.37;1.93;;;18.30;99.90;;;;;;5075618;28;20663;-69
2022/04/07 04:11:39;;;;;;;12.20;2.60;;;18.20;99.90;;;;;;5075299;28;20183;-68
2022/04/07 04:14:06;;;;;;;15.23;2.67;;;18.20;99.90;;;;;;5075024;28;20311;-68
2022/04/07 04:16:37;;;;;;;10.67;2.90;;;18.20;99.90;;;;;;5074868;28;20186;-69
2022/04/07 04:19:04;;;;;;;13.67;2.87;;;18.40;99.90;;;;;;5075053;28;20176;-69
2022/04/07 04:21:32;;;;;;;13.30;2.60;;;18.40;99.90;;;;;;5073583;28;20249;-69
2022/04/07 04:24:00;;;;;;;14.00;2.17;;;18.40;99.90;;;;;;5074764;28;20215;-68
2022/04/07 04:26:31;;;;;;;9.93;3.90;;;18.40;99.90;;;;;;5074987;28;20208;-68
2022/04/07 04:28:59;;;;;;;16.00;2.90;;;18.50;99.90;;;;;;5074862;28;20172;-68
2022/04/07 04:31:26;;;;;;;12.50;2.73;;;18.50;99.90;;;;;;5074812;28;20569;-68
2022/04/07 04:33:55;;;;;;;18.87;3.60;;;18.50;99.90;;;;;;5074884;28;20225;-68
2022/04/07 04:36:23;;;;;;;11.27;2.93;;;18.60;99.90;;;;;;5075009;28;20677;-68
2022/04/07 04:39:01;;;;;;;15.33;2.97;;;18.60;99.90;;;;;;5074583;28;20206;-68
2022/04/07 04:41:28;;;;;;;21.00;3.83;;;18.60;99.90;;;;;;5074939;28;20221;-68
2022/04/07 04:44:02;;;;;;;18.77;3.50;;;18.60;99.90;;;;;;5074708;28;20667;-68
2022/04/07 04:46:30;;;;;;;16.10;3.07;;;18.70;99.90;;;;;;5074513;28;20674;-68
2022/04/07 04:48:58;;;;;;;19.60;3.90;;;18.70;99.90;;;;;;5074473;28;20237;-69
2022/04/07 04:51:26;;;;;;;18.97;3.10;;;18.70;99.90;;;;;;5074379;28;20178;-67
2022/04/07 04:53:54;;;;;;;15.33;2.90;;;18.80;99.90;;;;;;5074357;28;20202;-68
2022/04/07 04:56:22;;;;;;;20.80;3.23;;;18.80;99.90;;;;;;5074488;28;20265;-69
2022/04/07 04:58:50;;;;;;;17.80;4.43;;;18.80;99.90;;;;;;5074532;28;20716;-68
2022/04/07 05:01:18;;;;;;;29.07;3.87;;;18.90;99.90;;;;;;5074317;28;20271;-69
2022/04/07 05:03:46;;;;;;;17.83;3.80;;;18.80;99.90;;;;;;5074219;28;20173;-69
2022/04/07 05:06:13;;;;;;;17.30;3.17;;;18.80;99.90;;;;;;5074134;28;20216;-69
2022/04/07 05:08:41;;;;;;;16.73;3.77;;;18.90;99.90;;;;;;5073404;28;20543;-69
2022/04/07 05:11:09;;;;;;;15.17;3.10;;;18.90;99.90;;;;;;5074398;28;20231;-70
2022/04/07 05:13:36;;;;;;;23.50;3.87;;;18.90;99.90;;;;;;5074141;28;20180;-70
2022/04/07 05:16:04;;;;;;;18.97;3.03;;;19.00;99.90;;;;;;5074216;28;20176;-70
2022/04/07 05:18:32;;;;;;;17.03;3.00;;;18.90;99.90;;;;;;5073038;28;20183;-69
2022/04/07 05:21:00;;;;;;;20.30;3.33;;;18.90;99.90;;;;;;5073987;28;20187;-70
2022/04/07 05:23:28;;;;;;;17.03;3.23;;;18.80;99.90;;;;;;5074189;28;20310;-70
2022/04/07 05:25:56;;;;;;;15.60;2.50;;;18.80;99.90;;;;;;5073622;28;20699;-70
2022/04/07 05:28:24;;;;;;;18.00;3.13;;;18.90;99.90;;;;;;5074276;28;20207;-69
2022/04/07 05:30:51;;;;;;;17.87;3.13;;;18.90;99.90;;;;;;5073916;28;20190;-71
2022/04/07 05:33:19;;;;;;;23.60;3.93;;;18.80;99.90;;;;;;5073982;28;20229;-69
2022/04/07 05:35:47;;;;;;;21.90;3.30;;;18.90;99.90;;;;;;5073479;28;20187;-69
2022/04/07 05:38:15;;;;;;;21.07;3.03;;;18.80;99.90;;;;;;5073266;28;20554;-69
2022/04/07 05:40:44;;;;;;;14.53;2.50;;;18.90;99.90;;;;;;5073772;28;20181;-70
2022/04/07 05:43:11;;;;;;;26.23;3.83;;;18.80;99.90;;;;;;5073751;28;20255;-70
2022/04/07 05:45:41;;;;;;;17.17;3.10;;;18.80;99.90;;;;;;5073719;28;20218;-70
2022/04/07 05:48:10;;;;;;;23.60;3.03;;;18.80;99.90;;;;;;5067377;28;20553;-69
2022/04/07 05:50:38;;;;;;;16.53;3.50;;;18.80;99.90;;;;;;5066714;28;20186;-69
2022/04/07 05:53:06;;;;;;;22.07;3.60;;;18.80;99.90;;;;;;5071758;28;20184;-69
2022/04/07 05:55:37;;;;;;;20.30;4.17;;;18.70;99.90;;;;;;5073492;28;20188;-69
2022/04/07 05:58:08;;;;;;;14.77;3.67;;;18.60;99.90;;;;;;5056014;28;20673;-69
2022/04/07 06:00:37;;;;;;;23.63;3.40;;;18.70;99.90;;;;;;5052348;28;20646;-69
2022/04/07 06:03:05;;;;;;;20.90;3.47;;;18.60;99.90;;;;;;5053118;28;20270;-69
2022/04/07 06:05:35;;;;;;;20.33;3.80;;;18.60;99.90;;;;;;5053274;28;20208;-69
2022/04/07 06:08:03;;;;;;;21.13;4.20;;;18.50;99.90;;;;;;5053246;28;20202;-70
2022/04/07 06:10:31;;;;;;;22.60;3.70;;;18.50;99.90;;;;;;5056796;28;20260;-70
2022/04/07 06:12:59;;;;;;;19.67;3.40;;;18.50;99.90;;;;;;5053430;28;20169;-71
2022/04/07 06:15:28;;;;;;;17.00;3.10;;;18.40;99.90;;;;;;5053353;28;20224;-69
2022/04/07 06:17:55;;;;;;;26.27;3.90;;;18.40;99.90;;;;;;5052020;28;20191;-69
2022/04/07 06:20:23;;;;;;;19.33;3.30;;;18.40;99.90;;;;;;5057757;28;20176;-69
2022/04/07 06:22:51;;;;;;;21.70;3.23;;;18.20;99.90;;;;;;5073093;28;20171;-69
2022/04/07 06:25:19;;;;;;;19.87;3.03;;;18.20;99.90;;;;;;5072386;28;20199;-69
2022/04/07 06:27:47;;;;;;;17.07;3.37;;;18.20;99.90;;;;;;5073193;28;20221;-69
2022/04/07 06:30:18;;;;;;;21.10;3.70;;;18.20;99.90;;;;;;5075004;28;20194;-69
2022/04/07 06:32:47;;;;;;;19.07;3.97;;;18.10;99.90;;;;;;5059172;28;20255;-69
2022/04/07 06:35:16;;;;;;;15.50;3.37;;;18.10;99.90;;;;;;5074546;28;20179;-69
2022/04/07 06:37:55;;;;;;;15.17;2.97;;;18.10;99.90;;;;;;5078864;28;20577;-69
2022/04/07 06:40:29;;;;;;;27.03;3.20;;;18.10;99.90;;;;;;5075722;28;20188;-69
2022/04/07 06:42:59;;;;;;;13.40;3.23;;;18.00;99.90;;;;;;5056732;28;20176;-68
2022/04/07 06:45:27;;;;;;;18.37;3.67;;;18.10;99.90;;;;;;5074309;28;20203;-68
2022/04/07 06:47:55;;;;;;;19.30;3.57;;;17.90;99.90;;;;;;5060953;28;20180;-68
2022/04/07 06:50:25;;;;;;;15.73;2.93;;;17.90;99.90;;;;;;5060785;28;20795;-68
2022/04/07 06:52:53;;;;;;;16.53;2.90;;;17.90;99.90;;;;;;5078081;28;20279;-69
2022/04/07 06:55:21;;;;;;;13.33;3.20;;;17.90;99.90;;;;;;5078186;28;20190;-68
2022/04/07 06:58:00;;;;;;;17.10;3.60;;;17.80;99.90;;;;;;5077673;28;20269;-67
2022/04/07 07:00:33;;;;;;;17.47;2.93;;;17.80;99.90;;;;;;5074242;28;20282;-68
2022/04/07 07:03:02;;;;;;;20.13;4.00;;;17.70;99.90;;;;;;5059091;28;20185;-69
2022/04/07 07:05:32;;;;;;;17.40;3.03;;;17.70;99.90;;;;;;5057773;28;20257;-68
2022/04/07 07:08:14;;;;;;;19.40;3.60;;;17.70;99.90;;;;;;5058082;28;20177;-67
2022/04/07 07:10:42;;;;;;;21.73;3.83;;;17.70;99.90;;;;;;5057922;28;20220;-68
2022/04/07 07:13:10;;;;;;;22.27;3.50;;;17.70;99.90;;;;;;5076372;28;20562;-68
2022/04/07 07:15:38;;;;;;;18.00;2.80;;;17.70;99.90;;;;;;5077892;28;20261;-68
2022/04/07 07:18:06;;;;;;;23.03;4.20;;;17.80;99.90;;;;;;5077889;28;20199;-68
2022/04/07 07:20:34;;;;;;;19.77;3.27;;;17.80;99.90;;;;;;5076461;28;20214;-67
2022/04/07 07:23:02;;;;;;;21.17;3.50;;;17.80;99.90;;;;;;5060690;28;20248;-68
2022/04/07 07:25:31;;;;;;;21.07;3.17;;;17.80;99.90;;;;;;5057763;28;20227;-68
2022/04/07 07:28:00;;;;;;;22.53;4.03;;;17.80;99.90;;;;;;5071290;28;20187;-68
2022/04/07 07:30:28;;;;;;;22.00;3.30;;;17.80;99.90;;;;;;5077550;28;20193;-67
2022/04/07 07:32:56;;;;;;;23.37;4.03;;;17.90;99.90;;;;;;5061733;28;21934;-68
2022/04/07 07:35:25;;;;;;;18.27;3.63;;;17.80;99.90;;;;;;5057641;28;20976;-68
2022/04/07 07:37:55;;;;;;;22.63;4.57;;;17.90;99.90;;;;;;5057716;28;20361;-68
2022/04/07 07:40:26;;;;;;;20.53;3.53;;;17.90;99.90;;;;;;5056482;28;20257;-68
2022/04/07 07:42:56;;;;;;;28.03;4.40;;;17.90;99.90;;;;;;5069360;28;20227;-68
2022/04/07 07:45:27;;;;;;;19.17;3.77;;;17.90;99.90;;;;;;5074312;28;20231;-67
2022/04/07 07:47:55;;;;;;;23.67;3.97;;;17.90;99.90;;;;;;5074438;28;20176;-68
2022/04/07 07:50:23;;;;;;;16.73;3.77;;;17.80;99.90;;;;;;5074406;28;20168;-68
2022/04/07 07:52:51;;;;;;;22.97;4.23;;;17.90;99.90;;;;;;5059441;28;20192;-68
2022/04/07 07:55:19;;;;;;;17.53;3.70;;;17.90;99.90;;;;;;5064640;28;20512;-67
2022/04/07 07:57:47;;;;;;;20.03;3.77;;;17.80;99.90;;;;;;5074269;28;20176;-68
2022/04/07 08:00:17;;;;;;;21.13;3.37;;;17.90;99.90;;;;;;5072011;28;20197;-68
2022/04/07 08:02:45;;;;;;;38.20;5.67;;;17.80;99.90;;;;;;5074183;28;20180;-67
2022/04/07 08:05:13;;;;;;;28.57;4.17;;;17.80;99.90;;;;;;5074197;28;20211;-67
2022/04/07 08:07:44;;;;;;;21.90;3.80;;;17.80;99.90;;;;;;5072947;28;20200;-68
2022/04/07 08:10:12;;;;;;;25.43;3.83;;;17.80;99.90;;;;;;5074155;28;20179;-68
2022/04/07 08:12:40;;;;;;;23.67;4.27;;;17.80;99.90;;;;;;5054183;28;20192;-68
2022/04/07 08:15:09;;;;;;;27.70;5.23;;;17.80;99.90;;;;;;5053831;28;20315;-68
2022/04/07 08:17:38;;;;;;;17.73;3.60;;;17.80;99.90;;;;;;5063579;28;20684;-67
2022/04/07 08:20:09;;;;;;;22.30;3.33;;;17.80;99.90;;;;;;5072440;28;20183;-68
2022/04/07 08:22:37;;;;;;;21.37;3.67;;;17.70;99.90;;;;;;5072779;28;20644;-69
2022/04/07 08:25:05;;;;;;;22.23;4.03;;;17.70;99.90;;;;;;5073716;28;20679;-68
2022/04/07 08:27:32;;;;;;;22.67;4.27;;;17.70;99.90;;;;;;5073857;28;20255;-68
2022/04/07 08:30:00;;;;;;;19.73;3.30;;;17.70;99.90;;;;;;5073752;28;20198;-68
2022/04/07 08:32:31;;;;;;;28.13;4.80;;;17.70;99.90;;;;;;5073523;28;20176;-68
2022/04/07 08:35:00;;;;;;;20.73;4.07;;;17.70;99.90;;;;;;5073635;28;20263;-68
2022/04/07 08:37:28;;;;;;;23.83;5.53;;;17.70;99.90;;;;;;5073523;28;20179;-68
2022/04/07 08:39:55;;;;;;;27.00;4.63;;;17.70;99.90;;;;;;5073512;28;20649;-68
2022/04/07 08:42:24;;;;;;;26.40;4.30;;;17.70;99.90;;;;;;5066479;28;20181;-69
2022/04/07 08:44:52;;;;;;;18.30;4.33;;;17.80;99.90;;;;;;5060724;28;20656;-69
2022/04/07 08:47:21;;;;;;;22.33;3.83;;;17.70;99.90;;;;;;5074157;28;20180;-68
2022/04/07 08:49:52;;;;;;;22.33;3.83;;;17.70;99.90;;;;;;5074260;28;20210;-69
2022/04/07 08:52:20;;;;;;;17.67;4.40;;;17.80;99.90;;;;;;5066330;28;20185;-68
2022/04/07 08:54:48;;;;;;;19.27;4.13;;;17.70;99.90;;;;;;5053943;28;20182;-68
2022/04/07 08:57:17;;;;;;;18.00;3.37;;;17.70;99.90;;;;;;5054324;28;20183;-68
2022/04/07 08:59:45;;;;;;;17.93;3.60;;;17.70;99.90;;;;;;5054700;28;20250;-68
2022/04/07 09:02:13;;;;;;;22.93;4.80;;;17.70;99.90;;;;;;5053923;28;20215;-68
2022/04/07 09:04:42;;;;;;;23.70;3.93;;;17.70;99.90;;;;;;5053013;28;20230;-66
2022/04/07 09:07:14;;;;;;;16.77;3.03;;;17.80;99.90;;;;;;5072603;28;20194;-68
2022/04/07 09:09:41;;;;;;;11.83;2.80;;;17.80;99.90;;;;;;5072230;28;20172;-67
2022/04/07 09:12:10;;;;;;;26.70;4.40;;;17.80;99.90;;;;;;5062619;28;20181;-67
2022/04/07 09:14:38;;;;;;;28.73;4.17;;;17.90;99.90;;;;;;5052702;28;20353;-67
2022/04/07 09:17:06;;;;;;;25.97;4.43;;;18.00;99.90;;;;;;5052759;28;20541;-67
2022/04/07 09:19:36;;;;;;;18.30;3.23;;;18.00;99.90;;;;;;5059966;28;20172;-68
2022/04/07 09:22:11;;;;;;;17.10;3.33;;;18.00;99.90;;;;;;5072349;28;20214;-68
2022/04/07 09:24:40;;;;;;;16.10;3.63;;;18.10;99.90;;;;;;5072654;28;20175;-68
2022/04/07 09:27:10;;;;;;;21.07;4.03;;;18.10;99.90;;;;;;5072344;28;20217;-68
2022/04/07 09:29:46;;;;;;;16.13;3.37;;;18.10;99.90;;;;;;5057165;28;20274;-68
2022/04/07 09:32:25;;;;;;;24.97;3.53;;;18.10;99.90;;;;;;5072572;28;20605;-68
2022/04/07 09:34:58;;;;;;;12.20;2.83;;;18.10;99.90;;;;;;5070950;28;20549;-67
2022/04/07 09:37:28;;;;;;;15.60;3.80;;;18.00;99.90;;;;;;5072417;28;20687;-68
2022/04/07 09:40:07;;;;;;;22.07;3.73;;;18.00;99.90;;;;;;5062564;28;20176;-68
2022/04/07 09:42:35;;;;;;;18.67;3.27;;;18.00;99.90;;;;;;5071868;28;20206;-69
2022/04/07 09:45:04;;;;;;;18.43;3.47;;;18.00;99.90;;;;;;5072330;28;20636;-68
2022/04/07 09:47:39;;;;;;;22.97;3.00;;;17.90;99.90;;;;;;5072156;28;20675;-67
2022/04/07 09:50:08;;;;;;;18.60;3.37;;;17.90;99.90;;;;;;5069847;28;20214;-67
2022/04/07 09:52:41;;;;;;;20.97;3.50;;;17.90;99.90;;;;;;5073209;28;20188;-68
2022/04/07 09:55:11;;;;;;;15.50;2.90;;;17.90;99.90;;;;;;5087743;28;20186;-68
2022/04/07 09:57:40;;;;;;;16.00;3.30;;;18.00;99.90;;;;;;5069937;28;20266;-69
2022/04/07 10:00:09;;;;;;;22.40;3.77;;;18.00;99.90;;;;;;5072896;28;20245;-69
2022/04/07 10:02:38;;;;;;;18.93;3.70;;;17.90;99.90;;;;;;5073310;28;20250;-68
2022/04/07 10:05:07;;;;;;;17.13;3.37;;;18.00;99.90;;;;;;5072939;28;20209;-69
2022/04/07 10:07:35;;;;;;;14.43;3.70;;;18.00;99.90;;;;;;5072263;28;20192;-69
2022/04/07 10:10:03;;;;;;;19.77;3.67;;;18.10;99.90;;;;;;5073141;28;20198;-69
2022/04/07 10:12:33;;;;;;;16.40;3.60;;;18.00;99.90;;;;;;5073264;28;20617;-68
2022/04/07 10:15:03;;;;;;;23.30;3.03;;;18.10;99.90;;;;;;5073120;28;20238;-68
2022/04/07 10:17:31;;;;;;;17.37;2.93;;;18.20;99.90;;;;;;5071906;28;20229;-69
2022/04/07 10:20:09;;;;;;;12.97;2.80;;;18.20;99.90;;;;;;5073338;28;20179;-69
2022/04/07 10:22:46;;;;;;;23.67;3.80;;;18.20;99.90;;;;;;5073064;28;20667;-68
2022/04/07 10:25:15;;;;;;;16.07;3.37;;;18.20;99.90;;;;;;5073223;28;20281;-67
2022/04/07 10:27:49;;;;;;;24.03;3.70;;;18.20;99.90;;;;;;5073117;28;20212;-68
2022/04/07 10:30:18;;;;;;;21.37;3.60;;;18.10;99.90;;;;;;5072936;28;20175;-68
2022/04/07 10:32:47;;;;;;;20.67;3.60;;;18.20;99.90;;;;;;5072934;28;20180;-68
2022/04/07 10:35:35;;;;;;;14.73;2.87;;;18.20;99.90;;;;;;5072586;28;20542;-68
2022/04/07 10:38:14;;;;;;;20.33;3.40;;;18.20;99.90;;;;;;5071923;28;20202;-67
2022/04/07 10:40:51;;;;;;;18.93;3.20;;;18.30;99.90;;;;;;5072793;28;20179;-67
2022/04/07 10:43:26;;;;;;;20.17;4.17;;;18.30;99.90;;;;;;5073413;28;20182;-69
2022/04/07 10:46:05;;;;;;;14.43;3.00;;;18.30;99.90;;;;;;5072773;28;20218;-68
2022/04/07 10:48:37;;;;;;;18.90;3.90;;;18.30;99.90;;;;;;5072576;28;20210;-68
2022/04/07 10:51:08;;;;;;;14.97;2.77;;;18.40;99.90;;;;;;5072173;28;20192;-68
2022/04/07 10:53:36;;;;;;;20.73;3.07;;;18.40;99.90;;;;;;5072724;28;20176;-69
2022/04/07 10:56:31;;;;;;;18.27;3.17;;;18.50;99.90;;;;;;5072750;28;20684;-69
2022/04/07 10:59:13;;;;;;;19.20;3.37;;;18.40;99.90;;;;;;5072743;28;20224;-69
2022/04/07 11:01:40;;;;;;;17.17;3.73;;;18.40;99.90;;;;;;5071286;28;20275;-69
2022/04/07 11:04:22;;;;;;;14.07;2.83;;;18.30;99.90;;;;;;5072841;28;20242;-68
2022/04/07 11:07:08;;;;;;;22.03;2.80;;;18.30;99.90;;;;;;5071217;28;20604;-69
2022/04/07 11:09:42;;;;;;;19.60;2.97;;;18.30;99.90;;;;;;5072791;28;20177;-69
2022/04/07 11:12:17;;;;;;;18.00;3.97;;;18.40;99.90;;;;;;5072229;28;20483;-69
2022/04/07 11:14:51;;;;;;;18.87;2.53;;;18.40;99.90;;;;;;5072555;28;20223;-70
2022/04/07 11:17:37;;;;;;;14.43;3.00;;;18.40;99.90;;;;;;5075046;28;20195;-69
2022/04/07 11:20:19;;;;;;;18.40;2.87;;;18.50;99.90;;;;;;5076536;28;20703;-69
2022/04/07 11:23:05;;;;;;;14.60;2.87;;;18.40;99.90;;;;;;5076253;28;20184;-69
2022/04/07 11:25:36;;;;;;;16.13;3.27;;;18.50;99.90;;;;;;5076303;28;20203;-68
2022/04/07 11:28:13;;;;;;;14.53;3.23;;;18.60;99.90;;;;;;5076162;28;20175;-68
2022/04/07 11:30:49;;;;;;;15.30;2.50;;;18.60;99.90;;;;;;5074804;28;20175;-68
2022/04/07 11:33:19;;;;;;;16.57;3.53;;;18.60;99.90;;;;;;5074873;28;20191;-69
2022/04/07 11:36:07;;;;;;;16.20;3.00;;;18.50;99.90;;;;;;5074966;28;20186;-69
2022/04/07 11:38:38;;;;;;;16.60;3.23;;;18.50;99.90;;;;;;5075895;28;20172;-69
2022/04/07 11:41:07;;;;;;;20.33;2.67;;;18.60;99.90;;;;;;5075820;28;20262;-69
2022/04/07 11:43:38;;;;;;;19.70;2.70;;;18.60;99.90;;;;;;5075840;28;20226;-68
2022/04/07 11:46:06;;;;;;;13.53;2.80;;;18.50;99.90;;;;;;5075718;28;20211;-69
2022/04/07 11:48:40;;;;;;;25.20;3.33;;;18.60;99.90;;;;;;5056403;28;20191;-69
2022/04/07 11:51:19;;;;;;;17.87;2.83;;;18.50;99.90;;;;;;5055701;28;20180;-69
2022/04/07 11:53:54;;;;;;;19.50;2.93;;;18.50;99.90;;;;;;5059427;28;20267;-68
2022/04/07 11:56:27;;;;;;;16.87;3.37;;;18.60;99.90;;;;;;5075786;28;20173;-69
2022/04/07 11:59:00;;;;;;;16.77;2.60;;;18.50;99.90;;;;;;5075604;28;20175;-68
2022/04/07 12:01:28;;;;;;;20.23;3.00;;;18.60;99.90;;;;;;5074633;28;20224;-68
2022/04/07 12:03:58;;;;;;;17.40;3.10;;;18.60;99.90;;;;;;5055773;28;20651;-68
2022/04/07 12:06:28;;;;;;;18.50;3.33;;;18.60;99.90;;;;;;5054341;28;20685;-68
2022/04/07 12:08:56;;;;;;;19.00;3.07;;;18.60;99.90;;;;;;5055550;28;20182;-68
2022/04/07 12:11:30;;;;;;;19.20;2.53;;;18.70;99.90;;;;;;5055377;28;20541;-68
2022/04/07 12:14:00;;;;;;;14.27;3.37;;;18.60;99.90;;;;;;5074318;28;20238;-68
2022/04/07 12:16:32;;;;;;;19.73;3.00;;;18.60;99.90;;;;;;5056590;28;20204;-69
2022/04/07 12:19:07;;;;;;;15.50;3.23;;;18.60;99.90;;;;;;5057524;28;20545;-69
2022/04/07 12:21:57;;;;;;;20.90;3.63;;;18.60;99.90;;;;;;5055076;28;20187;-68
2022/04/07 12:24:26;;;;;;;17.90;3.17;;;18.60;99.90;;;;;;5053951;28;20216;-69
2022/04/07 12:27:03;;;;;;;11.20;2.20;;;18.70;99.90;;;;;;5054452;28;20303;-69
2022/04/07 12:29:34;;;;;;;17.47;3.37;;;18.70;99.90;;;;;;5055125;28;20180;-68
2022/04/07 12:32:07;;;;;;;17.20;2.63;;;18.70;99.90;;;;;;5057588;28;20180;-68
2022/04/07 12:34:54;;;;;;;20.00;3.27;;;18.70;99.90;;;;;;5067871;28;20184;-68
2022/04/07 12:37:33;;;;;;;15.87;3.13;;;18.70;99.90;;;;;;5069443;28;20191;-68
2022/04/07 12:40:03;;;;;;;20.03;3.20;;;18.70;99.90;;;;;;5056561;28;20191;-69
2022/04/07 12:42:30;;;;;;;24.27;3.00;;;18.60;99.90;;;;;;5062483;28;20188;-69
2022/04/07 12:45:08;;;;;;;16.80;3.37;;;18.60;99.90;;;;;;5054809;28;20175;-68
2022/04/07 12:47:35;;;;;;;12.10;2.40;;;18.60;99.90;;;;;;5072719;28;20683;-68
2022/04/07 12:50:05;;;;;;;17.27;2.77;;;18.60;99.90;;;;;;5068837;28;20212;-68
2022/04/07 12:52:43;;;;;;;16.30;2.60;;;18.60;99.90;;;;;;5063652;28;20662;-68